Time;durP1;ratioP1;P1;durP2;ratioP2;P2;SDS_P1;SDS_P2;PMS_P1;PMS_P2;Temp;Humidity;BMP_temperature;BMP_pressure;BME280_temperature;BME280_humidity;BME280_pressure;Samples;Min_cycle;Max_cycle;Signal;HPM_P1;HPM_P2
2021/08/16 00:02:22;;;;;;;23.08;16.02;;;;;;;22.00;45.31;101543.03;5073027;28;20047;-81
2021/08/16 00:04:48;;;;;;;25.90;16.10;;;;;;;21.97;44.79;101534.63;5055206;28;20391;-81
2021/08/16 00:07:14;;;;;;;22.55;17.40;;;;;;;22.08;44.66;101530.88;5072940;28;20029;-81
2021/08/16 00:09:39;;;;;;;19.35;15.73;;;;;;;21.99;44.83;101535.03;5055004;28;20032;-81
2021/08/16 00:12:06;;;;;;;27.48;16.98;;;;;;;21.89;45.01;101517.78;5054384;28;20024;-81
2021/08/16 00:14:32;;;;;;;23.00;16.45;;;;;;;22.01;44.71;101521.56;5055001;28;20031;-81
2021/08/16 00:16:59;;;;;;;23.55;15.85;;;;;;;21.93;44.94;101523.44;5055083;28;20474;-81
2021/08/16 00:19:26;;;;;;;21.75;15.85;;;;;;;22.08;44.57;101530.88;5072880;28;20024;-81
2021/08/16 00:21:52;;;;;;;24.73;15.38;;;;;;;22.13;44.48;101527.75;5072846;28;20107;-81
2021/08/16 00:24:20;;;;;;;27.05;15.43;;;;;;;21.98;44.82;101533.44;5073001;28;20028;-82
2021/08/16 00:26:47;;;;;;;20.70;13.50;;;;;;;21.93;44.62;101526.22;5055020;28;20113;-81
2021/08/16 00:29:13;;;;;;;17.85;12.32;;;;;;;22.10;44.07;101534.09;5072626;28;20395;-81
2021/08/16 00:31:40;;;;;;;18.65;11.35;;;;;;;22.21;43.76;101533.44;5054882;28;20491;-82
2021/08/16 00:34:05;;;;;;;16.50;11.50;;;;;;;22.15;43.46;101525.44;5072769;28;20045;-81
2021/08/16 00:36:31;;;;;;;16.48;11.27;;;;;;;21.88;43.96;101527.31;5072760;28;20056;-86
2021/08/16 00:38:56;;;;;;;20.70;11.75;;;;;;;21.91;43.64;101545.25;5054667;28;20036;-81
2021/08/16 00:41:23;;;;;;;15.95;9.85;;;;;;;21.99;43.54;101543.38;5072715;28;20036;-81
2021/08/16 00:43:50;;;;;;;15.20;9.95;;;;;;;22.10;42.85;101545.22;5054786;28;20032;-81
2021/08/16 00:46:16;;;;;;;13.40;9.82;;;;;;;22.11;43.16;101557.16;5072513;28;20024;-81
2021/08/16 00:48:42;;;;;;;14.43;9.63;;;;;;;22.13;43.00;101554.78;5054693;28;20034;-81
2021/08/16 00:51:10;;;;;;;16.63;9.65;;;;;;;22.13;43.00;101563.94;5054433;28;20028;-81
2021/08/16 00:53:35;;;;;;;17.63;10.52;;;;;;;22.10;43.23;101561.13;5054635;28;20052;-81
2021/08/16 00:56:01;;;;;;;18.15;10.20;;;;;;;21.70;44.02;101572.69;5054651;28;20067;-81
2021/08/16 00:58:27;;;;;;;18.23;10.48;;;;;;;21.93;43.53;101562.38;5072274;28;20090;-85
2021/08/16 01:00:59;;;;;;;18.10;10.35;;;;;;;21.89;43.71;101573.44;5072610;28;20047;-81
2021/08/16 01:03:26;;;;;;;19.83;12.75;;;;;;;21.82;44.00;101580.84;5054606;28;20052;-81
2021/08/16 01:05:53;;;;;;;17.55;13.15;;;;;;;21.67;44.43;101581.75;5072429;28;20032;-81
2021/08/16 01:08:20;;;;;;;20.02;12.43;;;;;;;21.95;43.88;101587.06;5072332;28;20086;-81
2021/08/16 01:10:46;;;;;;;20.92;12.70;;;;;;;21.77;44.04;101589.53;5072243;28;20055;-80
2021/08/16 01:13:11;;;;;;;18.98;12.68;;;;;;;21.62;44.59;101584.84;5072253;28;20502;-81
2021/08/16 01:15:37;;;;;;;16.30;11.90;;;;;;;21.75;44.15;101566.81;5054357;28;20024;-84
2021/08/16 01:18:03;;;;;;;23.17;13.52;;;;;;;21.89;43.81;101564.28;5072506;28;20127;-82
2021/08/16 01:20:29;;;;;;;17.23;11.70;;;;;;;21.78;44.28;101560.53;5054147;28;20032;-86
2021/08/16 01:22:56;;;;;;;19.23;14.05;;;;;;;21.82;44.36;101562.19;5055594;28;20111;-81
2021/08/16 01:25:22;;;;;;;16.15;12.27;;;;;;;21.86;44.15;101573.38;5076214;28;20032;-81
2021/08/16 01:27:47;;;;;;;19.90;12.18;;;;;;;22.01;43.72;101578.03;5080408;28;20020;-81
2021/08/16 01:30:16;;;;;;;20.67;13.70;;;;;;;21.64;44.72;101585.28;5095825;28;20073;-81
2021/08/16 01:32:43;;;;;;;18.63;12.87;;;;;;;21.74;44.63;101587.44;5096179;28;20048;-81
2021/08/16 01:35:09;;;;;;;18.38;12.35;;;;;;;21.84;44.39;101584.09;5096350;28;20394;-81
2021/08/16 01:37:35;;;;;;;19.45;12.63;;;;;;;21.77;44.53;101587.53;5096161;28;20519;-81
2021/08/16 01:40:01;;;;;;;21.42;11.82;;;;;;;21.88;44.18;101577.41;5077781;28;20099;-82
2021/08/16 01:42:26;;;;;;;17.00;11.15;;;;;;;21.80;44.54;101569.28;5096061;28;20386;-82
2021/08/16 01:44:52;;;;;;;14.88;10.00;;;;;;;21.97;44.25;101568.00;5096062;28;20088;-81
2021/08/16 01:47:18;;;;;;;17.15;10.38;;;;;;;21.99;44.31;101562.88;5095866;28;20059;-81
2021/08/16 01:49:46;;;;;;;16.58;10.15;;;;;;;21.89;44.45;101567.88;5095851;28;20035;-81
2021/08/16 01:52:11;;;;;;;12.90;9.40;;;;;;;21.82;44.67;101578.88;5095739;28;20028;-81
2021/08/16 01:54:37;;;;;;;19.58;10.75;;;;;;;21.96;44.46;101583.09;5077810;28;20028;-81
2021/08/16 01:57:03;;;;;;;18.08;10.68;;;;;;;22.06;44.33;101586.06;5095789;28;20110;-81
2021/08/16 01:59:29;;;;;;;15.93;9.75;;;;;;;22.08;44.22;101586.53;5095715;28;20509;-85
2021/08/16 02:01:54;;;;;;;16.80;9.57;;;;;;;21.99;44.62;101583.16;5095680;28;20059;-81
2021/08/16 02:04:20;;;;;;;17.48;10.55;;;;;;;22.03;44.53;101592.38;5077173;28;20042;-81
2021/08/16 02:06:45;;;;;;;15.90;9.13;;;;;;;21.58;45.81;101595.91;5077149;28;20027;-81
2021/08/16 02:09:11;;;;;;;17.48;9.23;;;;;;;21.99;44.51;101599.03;5095396;28;20027;-82
2021/08/16 02:11:37;;;;;;;12.00;8.40;;;;;;;21.81;45.06;101601.50;5077243;28;20077;-81
2021/08/16 02:14:02;;;;;;;13.38;8.00;;;;;;;21.75;45.42;101617.69;5095473;28;20028;-81
2021/08/16 02:16:29;;;;;;;16.92;10.07;;;;;;;21.84;45.17;101620.25;5077323;28;20062;-82
2021/08/16 02:18:55;;;;;;;15.77;8.32;;;;;;;21.88;45.08;101615.53;5077224;28;20119;-81
2021/08/16 02:21:20;;;;;;;16.92;8.32;;;;;;;21.99;44.95;101622.13;5077120;28;20115;-81
2021/08/16 02:23:46;;;;;;;13.60;9.20;;;;;;;21.99;44.83;101622.13;5095228;28;20027;-81
2021/08/16 02:26:12;;;;;;;13.65;8.70;;;;;;;21.82;45.33;101619.78;5077027;28;20468;-81
2021/08/16 02:28:37;;;;;;;12.55;8.02;;;;;;;21.94;45.24;101621.63;5095035;28;20060;-81
2021/08/16 02:31:03;;;;;;;14.48;7.78;;;;;;;22.09;44.58;101626.31;5095142;28;20024;-81
2021/08/16 02:33:29;;;;;;;13.35;7.70;;;;;;;22.08;44.83;101621.91;5095076;28;20028;-85
2021/08/16 02:35:55;;;;;;;16.20;7.68;;;;;;;22.13;44.29;101622.38;5076031;28;20088;-82
2021/08/16 02:38:21;;;;;;;16.80;9.13;;;;;;;22.07;44.50;101620.28;5076805;28;20032;-81
2021/08/16 02:40:46;;;;;;;13.95;7.13;;;;;;;22.01;44.90;101611.41;5076658;28;20032;-81
2021/08/16 02:43:12;;;;;;;13.20;6.88;;;;;;;22.13;44.62;101614.03;5076885;28;20123;-81
2021/08/16 02:45:37;;;;;;;12.70;7.72;;;;;;;22.37;43.96;101614.88;5094933;28;20103;-81
2021/08/16 02:48:03;;;;;;;12.27;7.07;;;;;;;22.29;44.05;101613.94;5094858;28;20054;-84
2021/08/16 02:50:29;;;;;;;17.00;7.88;;;;;;;22.30;44.28;101617.53;5094672;28;20111;-84
2021/08/16 02:52:55;;;;;;;12.98;8.13;;;;;;;22.21;44.29;101619.72;5094742;28;20107;-81
2021/08/16 02:55:21;;;;;;;12.25;6.80;;;;;;;22.08;44.84;101622.72;5094759;28;20032;-81
2021/08/16 02:57:46;;;;;;;13.40;6.45;;;;;;;21.82;45.22;101622.56;5076493;28;20443;-82
2021/08/16 03:00:14;;;;;;;13.57;6.63;;;;;;;21.97;44.98;101618.09;5094624;28;20039;-82
2021/08/16 03:02:40;;;;;;;11.60;6.20;;;;;;;21.92;45.02;101622.00;5094558;28;20462;-81
2021/08/16 03:05:06;;;;;;;14.15;6.78;;;;;;;21.93;44.98;101637.50;5094542;28;20039;-81
2021/08/16 03:07:32;;;;;;;8.93;6.13;;;;;;;22.07;44.68;101634.19;5094475;28;20089;-83
2021/08/16 03:09:58;;;;;;;13.65;5.78;;;;;;;22.30;44.23;101618.34;5094183;28;20031;-81
2021/08/16 03:12:23;;;;;;;10.30;5.82;;;;;;;22.27;44.29;101621.03;5094356;28;20024;-81
2021/08/16 03:14:49;;;;;;;10.05;5.60;;;;;;;22.36;44.01;101624.38;5094273;28;20028;-81
2021/08/16 03:17:14;;;;;;;9.80;5.55;;;;;;;22.26;44.35;101622.22;5094318;28;20428;-81
2021/08/16 03:19:40;;;;;;;11.88;5.70;;;;;;;22.30;43.84;101620.31;5094190;28;20028;-81
2021/08/16 03:22:06;;;;;;;15.10;6.18;;;;;;;22.22;44.33;101618.56;5075856;28;20027;-81
2021/08/16 03:24:33;;;;;;;9.55;5.25;;;;;;;22.31;44.30;101616.34;5075816;28;20217;-81
2021/08/16 03:26:59;;;;;;;8.77;5.05;;;;;;;22.44;43.83;101623.31;5075828;28;20094;-85
2021/08/16 03:29:25;;;;;;;9.48;5.55;;;;;;;22.41;44.09;101622.09;5075604;28;20040;-81
2021/08/16 03:31:52;;;;;;;11.60;5.90;;;;;;;22.44;43.74;101623.31;5075848;28;20028;-82
2021/08/16 03:34:18;;;;;;;8.43;4.90;;;;;;;22.25;44.20;101623.41;5075856;28;20031;-82
2021/08/16 03:36:44;;;;;;;11.05;5.43;;;;;;;22.22;44.33;101626.91;5075588;28;20032;-81
2021/08/16 03:39:09;;;;;;;7.68;4.45;;;;;;;22.38;43.78;101624.81;5075713;28;20024;-81
2021/08/16 03:41:36;;;;;;;7.93;4.45;;;;;;;22.30;44.21;101625.88;5075595;28;20034;-81
2021/08/16 03:44:02;;;;;;;12.65;5.60;;;;;;;22.04;44.94;101618.22;5093776;28;20651;-86
2021/08/16 03:46:28;;;;;;;12.90;5.88;;;;;;;22.17;44.53;101622.47;5074548;28;20055;-81
2021/08/16 03:48:53;;;;;;;9.07;4.30;;;;;;;22.20;44.45;101621.72;5075273;28;20494;-82
2021/08/16 03:51:19;;;;;;;12.88;4.75;;;;;;;22.08;44.61;101619.13;5075371;28;20085;-80
2021/08/16 03:53:45;;;;;;;11.73;4.93;;;;;;;21.78;45.50;101622.53;5093562;28;20020;-81
2021/08/16 03:56:11;;;;;;;11.07;4.70;;;;;;;21.81;45.39;101632.91;5075211;28;20478;-83
2021/08/16 03:58:41;;;;;;;10.30;4.40;;;;;;;22.03;44.58;101636.91;5093470;28;20020;-81
2021/08/16 04:01:10;;;;;;;7.07;4.28;;;;;;;21.95;44.55;101642.69;5093417;28;20020;-81
2021/08/16 04:03:38;;;;;;;6.33;3.57;;;;;;;21.79;45.16;101648.38;5075409;28;20055;-82
2021/08/16 04:06:04;;;;;;;7.28;4.07;;;;;;;21.76;45.08;101643.50;5093480;28;20020;-83
2021/08/16 04:08:30;;;;;;;7.25;3.72;;;;;;;21.86;44.88;101638.19;5093259;28;20073;-82
2021/08/16 04:10:55;;;;;;;8.70;4.30;;;;;;;21.78;44.74;101644.78;5075028;28;20557;-82
2021/08/16 04:13:21;;;;;;;13.20;4.85;;;;;;;21.67;45.11;101651.28;5075052;28;20443;-82
2021/08/16 04:15:46;;;;;;;9.95;4.60;;;;;;;21.73;45.03;101644.25;5075032;28;20024;-82
2021/08/16 04:18:12;;;;;;;6.35;3.88;;;;;;;21.80;44.96;101652.75;5093281;28;20039;-81
2021/08/16 04:20:38;;;;;;;10.02;5.00;;;;;;;21.72;45.05;101643.47;5075033;28;20067;-85
2021/08/16 04:23:04;;;;;;;13.85;6.60;;;;;;;21.81;44.80;101659.91;5074972;28;20509;-81
2021/08/16 04:25:29;;;;;;;13.15;4.68;;;;;;;21.67;44.94;101663.22;5075003;28;20034;-84
2021/08/16 04:27:55;;;;;;;7.50;3.88;;;;;;;21.94;44.10;101658.59;5092959;28;20035;-85
2021/08/16 04:30:20;;;;;;;9.57;4.57;;;;;;;21.91;44.35;101652.94;5071364;28;20135;-82
2021/08/16 04:32:46;;;;;;;9.45;4.03;;;;;;;21.71;44.74;101660.53;5071374;28;20032;-81
2021/08/16 04:35:12;;;;;;;7.55;4.10;;;;;;;21.89;43.77;101656.91;5072860;28;20146;-82
2021/08/16 04:37:40;;;;;;;7.03;4.38;;;;;;;21.88;43.81;101660.06;5071445;28;20085;-82
2021/08/16 04:40:07;;;;;;;8.10;4.03;;;;;;;21.68;44.28;101666.78;5071562;28;20170;-81
2021/08/16 04:42:34;;;;;;;9.60;4.57;;;;;;;21.74;44.02;101682.03;5072612;28;20116;-81
2021/08/16 04:44:59;;;;;;;12.38;5.28;;;;;;;21.70;44.12;101673.63;5071473;28;20033;-81
2021/08/16 04:47:25;;;;;;;12.57;5.05;;;;;;;21.67;44.23;101670.75;5072706;28;20081;-81
2021/08/16 04:49:54;;;;;;;7.22;4.53;;;;;;;21.38;44.78;101666.56;5072113;28;20032;-82
2021/08/16 04:52:20;;;;;;;10.48;5.43;;;;;;;21.84;44.00;101657.22;5072120;28;20020;-81
2021/08/16 04:54:45;;;;;;;10.90;5.15;;;;;;;21.59;44.51;101653.91;5072736;28;20149;-82
2021/08/16 04:57:11;;;;;;;11.02;4.72;;;;;;;21.77;44.23;101654.28;5071630;28;20031;-81
2021/08/16 04:59:36;;;;;;;9.63;5.43;;;;;;;21.58;44.85;101662.63;5076931;28;20032;-81
2021/08/16 05:02:02;;;;;;;10.57;4.28;;;;;;;21.37;45.59;101665.75;5076851;28;20063;-82
2021/08/16 05:04:28;;;;;;;14.70;4.70;;;;;;;21.46;45.25;101671.09;5076791;28;20024;-80
2021/08/16 05:06:53;;;;;;;14.00;4.68;;;;;;;21.53;45.36;101666.50;5076539;28;20382;-85
2021/08/16 05:09:19;;;;;;;8.77;5.13;;;;;;;21.31;45.70;101665.25;5076729;28;20040;-82
2021/08/16 05:11:45;;;;;;;8.57;4.15;;;;;;;21.33;45.87;101667.66;5076603;28;20434;-81
2021/08/16 05:14:10;;;;;;;10.50;5.20;;;;;;;21.33;45.65;101665.69;5076606;28;20028;-81
2021/08/16 05:16:36;;;;;;;14.95;5.85;;;;;;;21.39;45.44;101671.78;5075116;28;20039;-80
2021/08/16 05:19:02;;;;;;;11.45;5.30;;;;;;;21.16;46.42;101670.81;5076341;28;20032;-82
2021/08/16 05:21:30;;;;;;;11.30;4.65;;;;;;;21.13;46.18;101672.34;5076259;28;20367;-81
2021/08/16 05:23:56;;;;;;;11.02;5.80;;;;;;;21.34;45.94;101674.84;5074916;28;20028;-81
2021/08/16 05:26:22;;;;;;;9.80;4.72;;;;;;;21.56;44.97;101674.13;5076274;28;20032;-81
2021/08/16 05:28:48;;;;;;;14.13;5.50;;;;;;;21.65;44.84;101673.09;5080176;28;20086;-80
2021/08/16 05:31:14;;;;;;;10.85;5.25;;;;;;;21.42;45.58;101675.81;5096235;28;20375;-80
2021/08/16 05:33:39;;;;;;;9.75;6.22;;;;;;;21.41;45.56;101679.75;5096350;28;20153;-83
2021/08/16 05:36:05;;;;;;;10.15;5.13;;;;;;;21.66;44.92;101683.06;5096282;28;20024;-80
2021/08/16 05:38:31;;;;;;;10.13;5.00;;;;;;;21.65;44.88;101687.81;5077920;28;20028;-80
2021/08/16 05:40:57;;;;;;;11.07;5.30;;;;;;;21.69;45.06;101696.22;5078018;28;20032;-79
2021/08/16 05:43:23;;;;;;;9.40;5.45;;;;;;;21.75;44.78;101695.56;5096025;28;20165;-83
2021/08/16 05:45:49;;;;;;;9.85;4.97;;;;;;;21.45;45.56;101688.97;5077824;28;20028;-80
2021/08/16 05:48:17;;;;;;;12.98;5.32;;;;;;;21.60;45.32;101694.47;5077756;28;20158;-80
2021/08/16 05:50:43;;;;;;;10.52;5.35;;;;;;;21.73;44.75;101695.13;5095895;28;20073;-81
2021/08/16 05:53:10;;;;;;;12.48;5.30;;;;;;;21.74;44.87;101685.59;5095862;28;20028;-80
2021/08/16 05:55:36;;;;;;;9.70;4.68;;;;;;;21.67;45.01;101704.13;5077595;28;20055;-80
2021/08/16 05:58:01;;;;;;;11.65;4.95;;;;;;;21.45;45.64;101702.84;5077526;28;20478;-84
2021/08/16 06:00:27;;;;;;;16.15;6.35;;;;;;;21.59;45.26;101701.19;5095678;28;20064;-80
2021/08/16 06:02:53;;;;;;;9.50;5.28;;;;;;;21.66;45.11;101717.22;5077456;28;20024;-84
2021/08/16 06:05:18;;;;;;;11.25;5.68;;;;;;;21.73;45.06;101720.16;5077482;28;20114;-80
2021/08/16 06:07:44;;;;;;;11.60;5.20;;;;;;;21.78;44.96;101721.84;5095504;28;20029;-80
2021/08/16 06:10:10;;;;;;;14.27;5.75;;;;;;;21.73;45.20;101722.13;5094548;28;20039;-82
2021/08/16 06:12:36;;;;;;;10.95;5.10;;;;;;;21.68;45.39;101719.66;5095516;28;20028;-81
2021/08/16 06:15:03;;;;;;;10.85;5.00;;;;;;;21.69;45.35;101713.75;5095272;28;20058;-81
2021/08/16 06:17:29;;;;;;;13.85;5.05;;;;;;;21.58;45.86;101719.06;5077405;28;20035;-81
2021/08/16 06:19:55;;;;;;;9.77;4.45;;;;;;;21.53;45.82;101716.56;5077333;28;20055;-86
2021/08/16 06:22:21;;;;;;;10.95;4.85;;;;;;;21.77;45.29;101712.72;5095158;28;20478;-82
2021/08/16 06:24:46;;;;;;;14.30;5.68;;;;;;;21.66;45.74;101727.56;5095485;28;20048;-82
2021/08/16 06:27:13;;;;;;;19.00;5.47;;;;;;;21.67;45.59;101724.41;5077192;28;20040;-81
2021/08/16 06:29:38;;;;;;;8.55;4.05;;;;;;;21.75;45.58;101725.34;5095214;28;20055;-81
2021/08/16 06:32:04;;;;;;;9.82;4.97;;;;;;;21.40;46.63;101734.56;5095227;28;20103;-82
2021/08/16 06:34:30;;;;;;;8.60;4.00;;;;;;;21.42;46.78;101736.97;5077130;28;20024;-81
2021/08/16 06:36:56;;;;;;;9.38;4.03;;;;;;;21.52;46.52;101748.31;5077053;28;20378;-82
2021/08/16 06:39:23;;;;;;;8.35;4.30;;;;;;;21.55;46.41;101758.72;5095079;28;20038;-81
2021/08/16 06:41:51;;;;;;;9.48;4.05;;;;;;;21.62;46.49;101760.06;5076834;28;20077;-81
2021/08/16 06:44:19;;;;;;;7.78;4.20;;;;;;;21.81;45.99;101760.06;5076820;28;20024;-82
2021/08/16 06:46:48;;;;;;;9.90;3.90;;;;;;;22.10;45.41;101758.72;5077120;28;20432;-81
2021/08/16 06:49:14;;;;;;;13.25;4.30;;;;;;;22.05;45.70;101761.75;5076694;28;20028;-81
2021/08/16 06:51:41;;;;;;;8.32;4.07;;;;;;;22.02;45.88;101766.09;5093173;28;20111;-80
2021/08/16 06:54:07;;;;;;;10.63;4.05;;;;;;;22.30;45.11;101759.50;5076634;28;20028;-81
2021/08/16 06:56:33;;;;;;;11.15;4.03;;;;;;;22.05;45.71;101764.53;5094809;28;20071;-82
2021/08/16 06:58:59;;;;;;;13.00;4.28;;;;;;;22.09;45.80;101766.25;5094700;28;20474;-82
2021/08/16 07:01:27;;;;;;;10.48;4.55;;;;;;;22.18;45.91;101774.38;5094867;28;20043;-82
2021/08/16 07:03:54;;;;;;;8.23;4.68;;;;;;;22.32;45.49;101768.28;5076516;28;20024;-80
2021/08/16 07:06:20;;;;;;;10.82;4.95;;;;;;;22.02;46.64;101776.41;5094498;28;20435;-81
2021/08/16 07:08:46;;;;;;;11.25;4.93;;;;;;;22.18;46.18;101779.94;5094675;28;20056;-81
2021/08/16 07:11:12;;;;;;;10.75;5.00;;;;;;;22.30;46.17;101784.56;5094377;28;20519;-81
2021/08/16 07:13:38;;;;;;;9.75;4.40;;;;;;;22.51;45.59;101781.38;5094769;28;20103;-79
2021/08/16 07:16:04;;;;;;;10.20;4.43;;;;;;;22.51;45.90;101778.56;5094554;28;20444;-87
2021/08/16 07:18:33;;;;;;;10.15;4.38;;;;;;;22.65;45.20;101774.06;5094836;28;20028;-84
2021/08/16 07:20:59;;;;;;;10.07;4.15;;;;;;;22.55;45.69;101776.69;5076090;28;20492;-84
2021/08/16 07:23:25;;;;;;;10.75;4.72;;;;;;;22.52;45.65;101778.22;5076846;28;20059;-86
2021/08/16 07:25:51;;;;;;;12.43;4.00;;;;;;;22.80;45.15;101785.47;5095195;28;20335;-86
2021/08/16 07:28:17;;;;;;;7.00;3.75;;;;;;;22.96;44.78;101786.19;5094624;28;20020;-88
2021/08/16 07:30:42;;;;;;;10.95;4.50;;;;;;;22.82;45.23;101791.47;5076534;28;20056;-87
2021/08/16 07:33:08;;;;;;;7.05;4.00;;;;;;;23.07;44.67;101794.75;5094354;28;20543;-84
2021/08/16 07:35:34;;;;;;;6.93;3.53;;;;;;;23.36;43.80;101794.03;5094171;28;20095;-82
2021/08/16 07:37:59;;;;;;;6.13;2.90;;;;;;;23.10;43.93;101786.41;5075690;28;20056;-82
2021/08/16 07:40:25;;;;;;;9.50;3.42;;;;;;;23.12;44.07;101798.00;5093671;28;20663;-80
2021/08/16 07:42:50;;;;;;;5.63;2.25;;;;;;;23.32;43.59;101814.66;5093635;28;20051;-82
2021/08/16 07:45:16;;;;;;;2.80;1.60;;;;;;;22.65;44.56;101815.84;5075501;28;20066;-80
2021/08/16 07:47:42;;;;;;;3.92;1.67;;;;;;;22.83;43.93;101816.22;5093646;28;20489;-81
2021/08/16 07:50:12;;;;;;;5.65;2.00;;;;;;;23.24;42.97;101824.88;5060273;28;20410;-80
2021/08/16 07:52:40;;;;;;;4.10;1.90;;;;;;;23.05;43.45;101825.78;5073383;28;20060;-81
2021/08/16 07:55:07;;;;;;;4.35;1.90;;;;;;;23.29;43.55;101818.19;5074186;28;20050;-79
2021/08/16 07:57:33;;;;;;;5.93;2.03;;;;;;;23.45;43.31;101830.81;5080894;28;20040;-79
2021/08/16 08:00:00;;;;;;;3.25;1.80;;;;;;;23.64;43.13;101827.13;5065203;28;20050;-79
2021/08/16 08:02:37;;;;;;;4.97;2.28;;;;;;;23.46;43.55;101826.03;5040377;28;20425;-80
2021/08/16 08:05:10;;;;;;;4.45;2.03;;;;;;;23.50;43.39;101835.25;5080309;28;20058;-80
2021/08/16 08:07:36;;;;;;;6.93;2.47;;;;;;;23.41;43.18;101826.34;5077475;28;20035;-81
2021/08/16 08:10:03;;;;;;;9.38;2.67;;;;;;;23.53;43.41;101834.50;5059624;28;20032;-79
2021/08/16 08:12:29;;;;;;;6.75;2.78;;;;;;;23.61;42.95;101841.03;5076691;28;20075;-79
2021/08/16 08:14:57;;;;;;;4.38;2.38;;;;;;;23.74;42.93;101854.41;5077094;28;20370;-80
2021/08/16 08:17:23;;;;;;;5.90;2.72;;;;;;;23.88;42.47;101853.81;5076680;28;20031;-78
2021/08/16 08:19:49;;;;;;;5.18;2.47;;;;;;;23.77;42.92;101856.41;5062671;28;20040;-80
2021/08/16 08:22:18;;;;;;;6.50;2.00;;;;;;;23.92;42.11;101853.84;5059385;28;20032;-82
2021/08/16 08:24:44;;;;;;;4.50;2.45;;;;;;;23.87;42.04;101848.56;5082372;28;20024;-80
2021/08/16 08:27:12;;;;;;;3.95;1.80;;;;;;;23.90;41.68;101847.84;5060851;28;20082;-81
2021/08/16 08:29:37;;;;;;;5.55;2.20;;;;;;;23.88;41.92;101848.22;5076496;28;20036;-84
2021/08/16 08:32:03;;;;;;;4.72;2.85;;;;;;;23.91;41.78;101844.66;5082419;28;20028;-83
2021/08/16 08:34:29;;;;;;;4.03;1.75;;;;;;;23.92;41.90;101854.63;5079518;28;20032;-82
2021/08/16 08:36:54;;;;;;;4.45;1.85;;;;;;;23.91;41.63;101861.41;5070999;28;20039;-79
2021/08/16 08:39:20;;;;;;;7.68;2.10;;;;;;;23.96;41.54;101861.09;5054047;28;20280;-80
2021/08/16 08:41:46;;;;;;;4.90;1.83;;;;;;;23.98;41.50;101844.75;5060095;28;20103;-78
2021/08/16 08:44:14;;;;;;;5.32;2.58;;;;;;;24.09;41.80;101858.84;5056757;28;20048;-88
2021/08/16 08:46:42;;;;;;;4.00;1.60;;;;;;;24.16;41.36;101846.97;5041024;28;20035;-80
2021/08/16 08:49:10;;;;;;;5.70;2.65;;;;;;;24.23;41.66;101855.44;5060125;28;20098;-84
2021/08/16 08:51:39;;;;;;;4.05;1.50;;;;;;;23.92;42.34;101856.63;5054377;28;20095;-79
2021/08/16 08:54:05;;;;;;;2.60;1.58;;;;;;;24.22;41.36;101854.63;5050530;28;20052;-75
2021/08/16 08:56:32;;;;;;;4.47;1.90;;;;;;;24.21;41.67;101866.19;5058552;28;20028;-75
2021/08/16 08:58:58;;;;;;;5.63;2.47;;;;;;;24.03;42.01;101857.56;5054359;28;20033;-81
2021/08/16 09:01:25;;;;;;;4.65;2.30;;;;;;;24.43;40.83;101862.53;5054270;28;20107;-75
2021/08/16 09:03:52;;;;;;;4.35;1.50;;;;;;;24.61;40.73;101860.72;5054064;28;20040;-76
2021/08/16 09:06:32;;;;;;;5.43;1.55;;;;;;;24.35;40.62;101853.25;5055503;28;20016;-74
2021/08/16 09:08:58;;;;;;;;;;;;;;;24.30;40.73;101869.50;5037350;28;20142;-80
2021/08/16 09:11:26;;;;;;;7.55;2.10;;;;;;;24.50;40.69;101867.38;5053744;28;19977;-75
2021/08/16 09:14:04;;;;;;;4.15;2.03;;;;;;;24.58;40.09;101869.06;5055184;28;20113;-75
2021/08/16 09:16:32;;;;;;;3.95;1.70;;;;;;;24.55;39.83;101872.63;5038128;28;20021;-74
2021/08/16 09:19:10;;;;;;;7.35;1.85;;;;;;;24.61;39.73;101879.47;5068342;28;20482;-77
2021/08/16 09:21:39;;;;;;;5.68;2.22;;;;;;;24.73;39.57;101879.22;5039443;28;20577;-74
2021/08/16 09:24:05;;;;;;;5.60;2.63;;;;;;;24.76;39.65;101886.03;5056625;28;20024;-82
2021/08/16 09:26:34;;;;;;;3.83;1.98;;;;;;;24.65;38.98;101882.31;5056368;28;21649;-83
2021/08/16 09:29:14;;;;;;;2.63;1.52;;;;;;;24.86;38.63;101874.97;5050261;28;20036;-84
2021/08/16 09:32:03;;;;;;;3.40;1.20;;;;;;;24.78;38.37;101883.66;5057409;28;20119;-84
2021/08/16 09:34:47;;;;;;;6.82;1.67;;;;;;;24.68;38.52;101885.16;5038264;28;20474;-77
2021/08/16 09:37:21;;;;;;;5.53;1.88;;;;;;;24.22;40.92;101885.38;5039861;28;20111;-78
2021/08/16 09:40:11;;;;;;;4.50;1.70;;;;;;;24.33;41.81;101891.94;5075002;28;20028;-70
2021/08/16 09:42:40;;;;;;;4.45;1.50;;;;;;;24.38;41.34;101885.19;5092245;28;20513;-69
2021/08/16 09:45:06;;;;;;;5.70;2.05;;;;;;;24.32;41.71;101889.47;5095316;28;20028;-72
2021/08/16 09:47:43;;;;;;;5.25;1.67;;;;;;;24.49;41.63;101905.69;5095779;28;20394;-69
2021/08/16 10:02:37;;;;;;;3.75;1.20;;;;;;;24.34;39.97;101910.31;5053891;28;20969;-70
2021/08/16 10:05:03;;;;;;;17.40;3.00;;;;;;;24.59;39.94;101909.81;5066800;28;20695;-84
2021/08/16 10:07:29;;;;;;;3.88;1.65;;;;;;;24.61;39.51;101913.00;5052376;27;20379;-76
2021/08/16 10:22:45;;;;;;;3.55;1.42;;;;;;;25.20;36.73;101916.88;5027570;27;20429;-74
2021/08/16 10:27:40;;;;;;;3.92;1.48;;;;;;;25.70;36.66;101911.72;5035574;28;20418;-73
2021/08/16 10:30:15;;;;;;;5.30;1.50;;;;;;;25.64;36.41;101927.25;5026388;28;20051;-73
2021/08/16 10:32:41;;;;;;;11.40;2.70;;;;;;;25.49;36.80;101939.53;5027685;28;20206;-74
2021/08/16 10:35:11;;;;;;;3.53;1.70;;;;;;;25.54;36.61;101948.34;5028213;28;20025;-76
2021/08/16 10:37:39;;;;;;;5.28;1.67;;;;;;;24.91;37.48;101944.50;5026967;28;20025;-73
2021/08/16 10:40:16;;;;;;;4.50;1.73;;;;;;;24.84;37.18;101950.00;5032709;28;20544;-72
2021/08/16 10:42:42;;;;;;;6.07;1.83;;;;;;;24.81;37.43;101949.97;5044137;28;20505;-72
2021/08/16 10:45:09;;;;;;;5.43;1.60;;;;;;;24.85;37.88;101945.22;5041278;28;20117;-72
2021/08/16 10:47:36;;;;;;;5.28;1.90;;;;;;;24.78;38.04;101937.56;5028120;28;20470;-72
2021/08/16 10:50:20;;;;;;;4.28;1.85;;;;;;;25.02;38.18;101924.25;5043365;28;20036;-72
2021/08/16 10:52:48;;;;;;;3.30;1.70;;;;;;;25.41;37.43;101955.44;5043988;28;20060;-75
2021/08/16 10:55:26;;;;;;;5.18;1.92;;;;;;;25.44;38.01;101949.88;5045271;28;20036;-77
2021/08/16 10:57:54;;;;;;;3.92;2.00;;;;;;;25.35;37.99;101957.78;5045015;28;20021;-74
2021/08/16 11:00:20;;;;;;;3.65;1.60;;;;;;;25.23;37.53;101952.44;5045129;28;20113;-74
2021/08/16 11:02:52;;;;;;;8.02;2.22;;;;;;;25.24;37.36;101959.69;5045212;28;20049;-78
2021/08/16 11:05:37;;;;;;;4.35;2.53;;;;;;;25.13;38.14;101961.56;5033528;28;20033;-75
2021/08/16 11:08:05;;;;;;;5.05;2.40;;;;;;;24.94;38.98;101956.09;5026725;28;20040;-74
2021/08/16 11:10:42;;;;;;;5.95;2.65;;;;;;;24.94;38.70;101970.91;5029403;28;20109;-74
2021/08/16 11:13:21;;;;;;;4.32;2.03;;;;;;;25.04;38.97;101963.84;5026366;28;20029;-74
2021/08/16 11:15:48;;;;;;;5.85;2.88;;;;;;;24.87;39.25;101962.44;5027550;28;20336;-75
2021/08/16 11:18:15;;;;;;;7.80;2.28;;;;;;;24.81;39.53;101952.78;5027173;28;20057;-73
2021/08/16 11:20:42;;;;;;;6.28;1.95;;;;;;;24.98;39.47;101959.75;5026557;28;20358;-73
2021/08/16 11:23:08;;;;;;;5.57;1.98;;;;;;;24.95;39.77;101961.34;5016843;28;20040;-73
2021/08/16 11:25:33;;;;;;;5.22;2.00;;;;;;;24.75;39.93;101957.91;5014383;28;20829;-72
2021/08/16 11:28:04;;;;;;;7.15;2.30;;;;;;;24.98;39.25;101954.16;5031426;28;20391;-72
2021/08/16 11:30:30;;;;;;;10.88;2.05;;;;;;;25.11;39.24;101959.13;5031286;28;20081;-71
2021/08/16 11:32:56;;;;;;;5.80;1.95;;;;;;;25.27;38.80;101956.09;5031672;28;20102;-72
2021/08/16 11:35:26;;;;;;;9.30;2.20;;;;;;;25.02;39.51;101950.22;5031322;28;20025;-71
2021/08/16 11:37:52;;;;;;;4.07;1.65;;;;;;;25.25;38.97;101946.50;5031336;28;20049;-71
2021/08/16 11:40:18;;;;;;;3.65;1.30;;;;;;;25.34;38.96;101945.00;5031174;28;20033;-71
2021/08/16 11:42:44;;;;;;;4.45;1.85;;;;;;;25.14;39.42;101947.19;5029914;28;20036;-70
2021/08/16 11:45:16;;;;;;;6.00;1.55;;;;;;;25.26;38.77;101940.50;5029886;28;20109;-70
2021/08/16 11:47:44;;;;;;;5.00;1.50;;;;;;;25.21;38.92;101949.25;5031208;28;20112;-71